Terminal Aerodrome Forecast
Issued by NWS

Home | Current Version | Previous Version | Graphics & Text | Print | Product List | Glossary On
Versions: 1 2 3 4 5 6 7 8 9 10 11 12 13 14 15 16 17 18 19 20 21
000
FTUS41 KCLE 072300
TAFFDY
TAF
KFDY 072337Z 0800/0824 22012KT P6SM -SHRA VCTS BKN045CB
      TEMPO 0800/0801 5SM -SHRA BR BKN035
     FM080200 23007KT P6SM SCT040 BKN250
     FM080800 21005KT 4SM BR SCT040 BKN200
     FM081100 20010KT P6SM VCSH BKN040 OVC100
     FM081500 23010G18KT 5SM -SHRA VCTS BKN025CB OVC060
     FM081800 26015G22KT P6SM BKN050=

USA.gov is the U.S. government's official web portal to all federal, state and local government web resources and services.